sensor_id;sensor_type;location;lat;lon;timestamp;P1;durP1;ratioP1;P2;durP2;ratioP2
69917;SDS011;57203;42.672;23.334;2023-04-22T00:00:02;9.7;;;6.9;;
69917;SDS011;57203;42.672;23.334;2023-04-22T00:01:02;9.7;;;7.4;;
69917;SDS011;57203;42.672;23.334;2023-04-22T00:03:02;9.8;;;8.2;;
69917;SDS011;57203;42.672;23.334;2023-04-22T00:04:02;12.2;;;7.7;;
69917;SDS011;57203;42.672;23.334;2023-04-22T00:05:03;9.3;;;7.2;;
69917;SDS011;57203;42.672;23.334;2023-04-22T00:06:03;9.7;;;7.3;;
69917;SDS011;57203;42.672;23.334;2023-04-22T00:07:03;9.7;;;7.4;;
69917;SDS011;57203;42.672;23.334;2023-04-22T00:08:03;10.8;;;7.9;;
69917;SDS011;57203;42.672;23.334;2023-04-22T00:09:03;11.7;;;7.7;;
69917;SDS011;57203;42.672;23.334;2023-04-22T00:10:04;11.7;;;7.3;;
69917;SDS011;57203;42.672;23.334;2023-04-22T00:11:04;10.5;;;7.2;;
69917;SDS011;57203;42.672;23.334;2023-04-22T00:12:04;10.5;;;7.9;;
69917;SDS011;57203;42.672;23.334;2023-04-22T00:13:04;11.9;;;7.8;;
69917;SDS011;57203;42.672;23.334;2023-04-22T00:14:04;11.8;;;7.6;;
69917;SDS011;57203;42.672;23.334;2023-04-22T00:15:05;10.3;;;8.6;;
69917;SDS011;57203;42.672;23.334;2023-04-22T00:16:05;12.4;;;8.0;;
69917;SDS011;57203;42.672;23.334;2023-04-22T00:17:05;10.5;;;7.6;;
69917;SDS011;57203;42.672;23.334;2023-04-22T00:18:05;11.2;;;7.9;;
69917;SDS011;57203;42.672;23.334;2023-04-22T00:19:05;12.4;;;8.8;;
69917;SDS011;57203;42.672;23.334;2023-04-22T00:20:06;11.2;;;8.2;;
69917;SDS011;57203;42.672;23.334;2023-04-22T00:21:06;11.5;;;8.7;;
69917;SDS011;57203;42.672;23.334;2023-04-22T00:22:06;12.0;;;9.0;;
69917;SDS011;57203;42.672;23.334;2023-04-22T00:23:06;12.3;;;8.8;;
69917;SDS011;57203;42.672;23.334;2023-04-22T00:24:06;12.4;;;8.2;;
69917;SDS011;57203;42.672;23.334;2023-04-22T00:25:07;13.5;;;7.7;;
69917;SDS011;57203;42.672;23.334;2023-04-22T00:26:06;13.5;;;7.5;;
69917;SDS011;57203;42.672;23.334;2023-04-22T00:28:07;11.5;;;8.1;;
69917;SDS011;57203;42.672;23.334;2023-04-22T00:29:07;13.2;;;8.2;;
69917;SDS011;57203;42.672;23.334;2023-04-22T00:30:07;12.9;;;8.1;;
69917;SDS011;57203;42.672;23.334;2023-04-22T00:31:07;12.2;;;8.3;;
69917;SDS011;57203;42.672;23.334;2023-04-22T00:32:08;12.2;;;8.1;;
69917;SDS011;57203;42.672;23.334;2023-04-22T00:33:08;13.1;;;7.8;;
69917;SDS011;57203;42.672;23.334;2023-04-22T00:34:08;11.5;;;8.5;;
69917;SDS011;57203;42.672;23.334;2023-04-22T00:35:08;13.3;;;8.1;;
69917;SDS011;57203;42.672;23.334;2023-04-22T00:36:08;11.1;;;8.5;;
69917;SDS011;57203;42.672;23.334;2023-04-22T00:37:09;11.0;;;8.4;;
69917;SDS011;57203;42.672;23.334;2023-04-22T00:38:09;11.4;;;8.2;;
69917;SDS011;57203;42.672;23.334;2023-04-22T00:39:09;12.3;;;8.4;;
69917;SDS011;57203;42.672;23.334;2023-04-22T00:40:09;12.3;;;9.5;;
69917;SDS011;57203;42.672;23.334;2023-04-22T00:41:09;14.2;;;8.6;;
69917;SDS011;57203;42.672;23.334;2023-04-22T00:42:09;12.4;;;8.3;;
69917;SDS011;57203;42.672;23.334;2023-04-22T00:43:10;11.3;;;8.2;;
69917;SDS011;57203;42.672;23.334;2023-04-22T00:45:11;10.5;;;8.1;;
69917;SDS011;57203;42.672;23.334;2023-04-22T00:46:11;10.5;;;9.2;;
69917;SDS011;57203;42.672;23.334;2023-04-22T00:47:11;12.4;;;8.5;;
69917;SDS011;57203;42.672;23.334;2023-04-22T00:48:12;11.6;;;9.8;;
69917;SDS011;57203;42.672;23.334;2023-04-22T00:49:11;12.6;;;9.3;;
69917;SDS011;57203;42.672;23.334;2023-04-22T00:50:11;12.6;;;9.9;;
69917;SDS011;57203;42.672;23.334;2023-04-22T00:51:11;15.3;;;11.0;;
69917;SDS011;57203;42.672;23.334;2023-04-22T00:52:11;16.0;;;10.2;;
69917;SDS011;57203;42.672;23.334;2023-04-22T00:53:11;15.7;;;10.0;;
69917;SDS011;57203;42.672;23.334;2023-04-22T00:54:12;14.8;;;11.2;;
69917;SDS011;57203;42.672;23.334;2023-04-22T00:55:12;16.4;;;10.3;;
69917;SDS011;57203;42.672;23.334;2023-04-22T00:56:12;14.3;;;10.1;;
69917;SDS011;57203;42.672;23.334;2023-04-22T00:57:12;14.1;;;9.9;;
69917;SDS011;57203;42.672;23.334;2023-04-22T00:58:12;14.2;;;10.3;;
69917;SDS011;57203;42.672;23.334;2023-04-22T00:59:13;15.0;;;11.3;;
69917;SDS011;57203;42.672;23.334;2023-04-22T01:00:13;15.0;;;11.1;;
69917;SDS011;57203;42.672;23.334;2023-04-22T01:01:13;14.5;;;10.8;;
69917;SDS011;57203;42.672;23.334;2023-04-22T01:02:13;14.4;;;11.4;;
69917;SDS011;57203;42.672;23.334;2023-04-22T01:03:14;17.5;;;11.8;;
69917;SDS011;57203;42.672;23.334;2023-04-22T01:05:14;16.9;;;11.6;;
69917;SDS011;57203;42.672;23.334;2023-04-22T01:06:14;16.9;;;12.0;;
69917;SDS011;57203;42.672;23.334;2023-04-22T01:07:14;16.1;;;11.3;;
69917;SDS011;57203;42.672;23.334;2023-04-22T01:08:15;15.0;;;11.6;;
69917;SDS011;57203;42.672;23.334;2023-04-22T01:09:14;16.7;;;10.8;;
69917;SDS011;57203;42.672;23.334;2023-04-22T01:10:15;16.7;;;12.1;;
69917;SDS011;57203;42.672;23.334;2023-04-22T01:11:15;16.8;;;11.8;;
69917;SDS011;57203;42.672;23.334;2023-04-22T01:12:15;16.8;;;11.6;;
69917;SDS011;57203;42.672;23.334;2023-04-22T01:13:15;16.2;;;12.2;;
69917;SDS011;57203;42.672;23.334;2023-04-22T01:14:15;17.0;;;10.8;;
69917;SDS011;57203;42.672;23.334;2023-04-22T01:15:15;14.1;;;11.5;;
69917;SDS011;57203;42.672;23.334;2023-04-22T01:16:16;15.6;;;10.9;;
69917;SDS011;57203;42.672;23.334;2023-04-22T01:17:16;14.4;;;12.2;;
69917;SDS011;57203;42.672;23.334;2023-04-22T01:18:16;16.8;;;11.2;;
69917;SDS011;57203;42.672;23.334;2023-04-22T01:19:16;19.3;;;12.6;;
69917;SDS011;57203;42.672;23.334;2023-04-22T01:20:16;19.3;;;13.6;;
69917;SDS011;57203;42.672;23.334;2023-04-22T01:21:17;18.8;;;12.2;;
69917;SDS011;57203;42.672;23.334;2023-04-22T01:22:17;18.3;;;12.6;;
69917;SDS011;57203;42.672;23.334;2023-04-22T01:23:18;18.3;;;13.2;;
69917;SDS011;57203;42.672;23.334;2023-04-22T01:24:17;20.9;;;13.7;;
69917;SDS011;57203;42.672;23.334;2023-04-22T01:25:17;18.5;;;13.8;;
69917;SDS011;57203;42.672;23.334;2023-04-22T01:26:18;20.7;;;13.0;;
69917;SDS011;57203;42.672;23.334;2023-04-22T01:27:18;19.5;;;13.6;;
69917;SDS011;57203;42.672;23.334;2023-04-22T01:29:18;19.1;;;13.1;;
69917;SDS011;57203;42.672;23.334;2023-04-22T01:30:18;18.4;;;13.5;;
69917;SDS011;57203;42.672;23.334;2023-04-22T01:31:18;19.3;;;12.8;;
69917;SDS011;57203;42.672;23.334;2023-04-22T01:32:18;19.3;;;13.7;;
69917;SDS011;57203;42.672;23.334;2023-04-22T01:33:19;19.3;;;13.0;;
69917;SDS011;57203;42.672;23.334;2023-04-22T01:37:20;20.3;;;13.4;;
69917;SDS011;57203;42.672;23.334;2023-04-22T01:38:20;20.3;;;13.9;;
69917;SDS011;57203;42.672;23.334;2023-04-22T01:39:20;19.3;;;14.0;;
69917;SDS011;57203;42.672;23.334;2023-04-22T01:40:20;21.4;;;13.6;;
69917;SDS011;57203;42.672;23.334;2023-04-22T01:42:20;19.0;;;13.3;;
69917;SDS011;57203;42.672;23.334;2023-04-22T01:43:20;18.4;;;13.5;;
69917;SDS011;57203;42.672;23.334;2023-04-22T01:44:21;20.1;;;13.6;;
69917;SDS011;57203;42.672;23.334;2023-04-22T01:45:21;17.9;;;14.0;;
69917;SDS011;57203;42.672;23.334;2023-04-22T01:46:21;19.6;;;13.6;;
69917;SDS011;57203;42.672;23.334;2023-04-22T01:47:21;19.6;;;13.8;;
69917;SDS011;57203;42.672;23.334;2023-04-22T01:48:22;20.1;;;13.7;;
69917;SDS011;57203;42.672;23.334;2023-04-22T01:49:22;19.2;;;13.5;;
69917;SDS011;57203;42.672;23.334;2023-04-22T01:50:22;23.3;;;14.3;;
69917;SDS011;57203;42.672;23.334;2023-04-22T01:51:22;23.3;;;12.7;;
69917;SDS011;57203;42.672;23.334;2023-04-22T01:52:22;18.6;;;12.4;;
69917;SDS011;57203;42.672;23.334;2023-04-22T01:53:22;18.1;;;13.5;;
69917;SDS011;57203;42.672;23.334;2023-04-22T01:54:23;18.2;;;12.9;;
69917;SDS011;57203;42.672;23.334;2023-04-22T01:55:23;18.9;;;12.3;;
69917;SDS011;57203;42.672;23.334;2023-04-22T01:56:23;16.3;;;13.0;;
69917;SDS011;57203;42.672;23.334;2023-04-22T01:57:23;18.3;;;12.0;;
69917;SDS011;57203;42.672;23.334;2023-04-22T01:58:23;16.2;;;12.7;;
69917;SDS011;57203;42.672;23.334;2023-04-22T01:59:23;18.6;;;12.0;;
69917;SDS011;57203;42.672;23.334;2023-04-22T02:00:24;17.4;;;12.2;;
69917;SDS011;57203;42.672;23.334;2023-04-22T02:01:24;16.6;;;11.7;;
69917;SDS011;57203;42.672;23.334;2023-04-22T02:02:24;16.1;;;11.6;;
69917;SDS011;57203;42.672;23.334;2023-04-22T02:03:24;16.1;;;11.8;;
69917;SDS011;57203;42.672;23.334;2023-04-22T02:04:24;16.9;;;12.0;;
69917;SDS011;57203;42.672;23.334;2023-04-22T02:05:25;16.9;;;11.9;;
69917;SDS011;57203;42.672;23.334;2023-04-22T02:06:25;17.5;;;11.4;;
69917;SDS011;57203;42.672;23.334;2023-04-22T02:07:25;15.3;;;11.0;;
69917;SDS011;57203;42.672;23.334;2023-04-22T02:08:25;15.0;;;10.9;;
69917;SDS011;57203;42.672;23.334;2023-04-22T02:09:25;15.8;;;11.6;;
69917;SDS011;57203;42.672;23.334;2023-04-22T02:10:25;16.1;;;11.7;;
69917;SDS011;57203;42.672;23.334;2023-04-22T02:11:26;16.1;;;12.0;;
69917;SDS011;57203;42.672;23.334;2023-04-22T02:12:26;15.1;;;11.9;;
69917;SDS011;57203;42.672;23.334;2023-04-22T02:13:33;18.3;;;11.5;;
69917;SDS011;57203;42.672;23.334;2023-04-22T02:15:26;18.5;;;11.8;;
69917;SDS011;57203;42.672;23.334;2023-04-22T02:16:27;19.1;;;11.4;;
69917;SDS011;57203;42.672;23.334;2023-04-22T02:17:27;16.2;;;12.0;;
69917;SDS011;57203;42.672;23.334;2023-04-22T02:18:27;17.0;;;11.9;;
69917;SDS011;57203;42.672;23.334;2023-04-22T02:19:27;15.7;;;11.5;;
69917;SDS011;57203;42.672;23.334;2023-04-22T02:20:27;20.9;;;12.4;;
69917;SDS011;57203;42.672;23.334;2023-04-22T02:22:28;18.3;;;13.3;;
69917;SDS011;57203;42.672;23.334;2023-04-22T02:23:28;17.9;;;17.7;;
69917;SDS011;57203;42.672;23.334;2023-04-22T02:24:28;26.5;;;19.0;;
69917;SDS011;57203;42.672;23.334;2023-04-22T02:25:28;26.5;;;24.8;;
69917;SDS011;57203;42.672;23.334;2023-04-22T02:26:28;33.5;;;27.9;;
69917;SDS011;57203;42.672;23.334;2023-04-22T02:27:29;42.2;;;32.8;;
69917;SDS011;57203;42.672;23.334;2023-04-22T02:28:29;45.8;;;34.1;;
69917;SDS011;57203;42.672;23.334;2023-04-22T02:29:29;48.1;;;34.6;;
69917;SDS011;57203;42.672;23.334;2023-04-22T02:30:29;48.1;;;38.3;;
69917;SDS011;57203;42.672;23.334;2023-04-22T02:31:29;45.2;;;33.9;;
69917;SDS011;57203;42.672;23.334;2023-04-22T02:32:30;45.2;;;33.8;;
69917;SDS011;57203;42.672;23.334;2023-04-22T02:33:30;46.0;;;34.1;;
69917;SDS011;57203;42.672;23.334;2023-04-22T02:34:30;45.3;;;34.7;;
69917;SDS011;57203;42.672;23.334;2023-04-22T02:35:30;40.2;;;31.6;;
69917;SDS011;57203;42.672;23.334;2023-04-22T02:36:30;36.0;;;27.0;;
69917;SDS011;57203;42.672;23.334;2023-04-22T02:37:30;36.0;;;30.8;;
69917;SDS011;57203;42.672;23.334;2023-04-22T02:38:31;41.4;;;26.8;;
69917;SDS011;57203;42.672;23.334;2023-04-22T02:39:31;36.3;;;25.2;;
69917;SDS011;57203;42.672;23.334;2023-04-22T02:40:31;36.3;;;21.9;;
69917;SDS011;57203;42.672;23.334;2023-04-22T02:41:31;32.2;;;22.9;;
69917;SDS011;57203;42.672;23.334;2023-04-22T02:42:31;32.2;;;22.6;;
69917;SDS011;57203;42.672;23.334;2023-04-22T02:43:32;30.3;;;17.6;;
69917;SDS011;57203;42.672;23.334;2023-04-22T02:44:32;25.1;;;16.5;;
69917;SDS011;57203;42.672;23.334;2023-04-22T02:45:32;20.5;;;15.5;;
69917;SDS011;57203;42.672;23.334;2023-04-22T02:46:32;20.5;;;13.7;;
69917;SDS011;57203;42.672;23.334;2023-04-22T02:47:32;20.2;;;13.4;;
69917;SDS011;57203;42.672;23.334;2023-04-22T02:48:32;20.2;;;13.6;;
69917;SDS011;57203;42.672;23.334;2023-04-22T02:49:33;21.2;;;13.2;;
69917;SDS011;57203;42.672;23.334;2023-04-22T02:50:33;18.2;;;13.3;;
69917;SDS011;57203;42.672;23.334;2023-04-22T02:51:33;19.7;;;13.5;;
69917;SDS011;57203;42.672;23.334;2023-04-22T02:52:33;18.2;;;14.0;;
69917;SDS011;57203;42.672;23.334;2023-04-22T02:53:33;19.6;;;16.6;;
69917;SDS011;57203;42.672;23.334;2023-04-22T02:54:34;23.7;;;15.1;;
69917;SDS011;57203;42.672;23.334;2023-04-22T02:55:34;21.9;;;14.9;;
69917;SDS011;57203;42.672;23.334;2023-04-22T02:56:34;21.2;;;15.1;;
69917;SDS011;57203;42.672;23.334;2023-04-22T02:57:34;21.2;;;13.5;;
69917;SDS011;57203;42.672;23.334;2023-04-22T02:58:34;19.2;;;13.2;;
69917;SDS011;57203;42.672;23.334;2023-04-22T02:59:35;20.2;;;12.9;;
69917;SDS011;57203;42.672;23.334;2023-04-22T03:00:35;18.3;;;12.3;;
69917;SDS011;57203;42.672;23.334;2023-04-22T03:01:35;18.3;;;12.4;;
69917;SDS011;57203;42.672;23.334;2023-04-22T03:03:35;18.1;;;11.4;;
69917;SDS011;57203;42.672;23.334;2023-04-22T03:04:35;16.0;;;12.1;;
69917;SDS011;57203;42.672;23.334;2023-04-22T03:05:36;16.0;;;16.6;;
69917;SDS011;57203;42.672;23.334;2023-04-22T03:06:36;22.7;;;17.6;;
69917;SDS011;57203;42.672;23.334;2023-04-22T03:07:36;24.6;;;16.4;;
69917;SDS011;57203;42.672;23.334;2023-04-22T03:08:36;24.6;;;15.7;;
69917;SDS011;57203;42.672;23.334;2023-04-22T03:09:36;21.3;;;16.1;;
69917;SDS011;57203;42.672;23.334;2023-04-22T03:10:37;23.2;;;15.5;;
69917;SDS011;57203;42.672;23.334;2023-04-22T03:11:37;21.5;;;14.7;;
69917;SDS011;57203;42.672;23.334;2023-04-22T03:12:37;21.5;;;12.5;;
69917;SDS011;57203;42.672;23.334;2023-04-22T03:13:37;17.5;;;14.4;;
69917;SDS011;57203;42.672;23.334;2023-04-22T03:14:37;19.1;;;13.1;;
69917;SDS011;57203;42.672;23.334;2023-04-22T03:15:38;19.1;;;13.6;;
69917;SDS011;57203;42.672;23.334;2023-04-22T03:16:38;20.6;;;12.5;;
69917;SDS011;57203;42.672;23.334;2023-04-22T03:17:38;17.8;;;13.5;;
69917;SDS011;57203;42.672;23.334;2023-04-22T03:18:38;19.3;;;12.9;;
69917;SDS011;57203;42.672;23.334;2023-04-22T03:19:38;18.4;;;12.8;;
69917;SDS011;57203;42.672;23.334;2023-04-22T03:20:38;18.5;;;12.6;;
69917;SDS011;57203;42.672;23.334;2023-04-22T03:21:38;18.0;;;12.1;;
69917;SDS011;57203;42.672;23.334;2023-04-22T03:22:39;18.6;;;13.0;;
69917;SDS011;57203;42.672;23.334;2023-04-22T03:23:39;18.6;;;14.7;;
69917;SDS011;57203;42.672;23.334;2023-04-22T03:24:39;21.6;;;17.2;;
69917;SDS011;57203;42.672;23.334;2023-04-22T03:25:39;27.1;;;19.0;;
69917;SDS011;57203;42.672;23.334;2023-04-22T03:26:39;35.2;;;21.7;;
69917;SDS011;57203;42.672;23.334;2023-04-22T03:27:40;35.2;;;18.1;;
69917;SDS011;57203;42.672;23.334;2023-04-22T03:28:40;28.3;;;16.7;;
69917;SDS011;57203;42.672;23.334;2023-04-22T03:29:40;25.2;;;15.9;;
69917;SDS011;57203;42.672;23.334;2023-04-22T03:30:40;26.8;;;14.1;;
69917;SDS011;57203;42.672;23.334;2023-04-22T03:31:40;20.4;;;15.5;;
69917;SDS011;57203;42.672;23.334;2023-04-22T03:32:40;23.3;;;15.2;;
69917;SDS011;57203;42.672;23.334;2023-04-22T03:33:41;21.5;;;13.9;;
69917;SDS011;57203;42.672;23.334;2023-04-22T03:34:41;24.3;;;13.4;;
69917;SDS011;57203;42.672;23.334;2023-04-22T03:35:41;20.9;;;11.8;;
69917;SDS011;57203;42.672;23.334;2023-04-22T03:36:41;21.6;;;14.6;;
69917;SDS011;57203;42.672;23.334;2023-04-22T03:37:41;23.3;;;15.6;;
69917;SDS011;57203;42.672;23.334;2023-04-22T03:38:41;23.3;;;15.0;;
69917;SDS011;57203;42.672;23.334;2023-04-22T03:39:42;22.6;;;14.8;;
69917;SDS011;57203;42.672;23.334;2023-04-22T03:40:42;21.9;;;15.5;;
69917;SDS011;57203;42.672;23.334;2023-04-22T03:41:42;22.7;;;14.9;;
69917;SDS011;57203;42.672;23.334;2023-04-22T03:42:42;22.7;;;15.3;;
69917;SDS011;57203;42.672;23.334;2023-04-22T03:43:42;21.6;;;15.5;;
69917;SDS011;57203;42.672;23.334;2023-04-22T03:44:42;21.6;;;15.8;;
69917;SDS011;57203;42.672;23.334;2023-04-22T03:45:43;21.1;;;14.4;;
69917;SDS011;57203;42.672;23.334;2023-04-22T03:46:43;21.1;;;14.3;;
69917;SDS011;57203;42.672;23.334;2023-04-22T03:47:43;22.8;;;15.8;;
69917;SDS011;57203;42.672;23.334;2023-04-22T03:48:43;22.8;;;15.6;;
69917;SDS011;57203;42.672;23.334;2023-04-22T03:49:43;23.0;;;14.8;;
69917;SDS011;57203;42.672;23.334;2023-04-22T03:50:44;23.9;;;15.5;;
69917;SDS011;57203;42.672;23.334;2023-04-22T03:51:44;23.9;;;15.1;;
69917;SDS011;57203;42.672;23.334;2023-04-22T03:53:44;25.1;;;16.8;;
69917;SDS011;57203;42.672;23.334;2023-04-22T03:54:44;25.1;;;16.4;;
69917;SDS011;57203;42.672;23.334;2023-04-22T03:55:45;23.2;;;16.3;;
69917;SDS011;57203;42.672;23.334;2023-04-22T03:56:45;22.7;;;16.1;;
69917;SDS011;57203;42.672;23.334;2023-04-22T03:57:45;22.7;;;15.9;;
69917;SDS011;57203;42.672;23.334;2023-04-22T03:58:45;24.3;;;16.5;;
69917;SDS011;57203;42.672;23.334;2023-04-22T03:59:45;24.0;;;14.9;;
69917;SDS011;57203;42.672;23.334;2023-04-22T04:00:45;24.0;;;14.7;;
69917;SDS011;57203;42.672;23.334;2023-04-22T04:01:46;23.4;;;15.5;;
69917;SDS011;57203;42.672;23.334;2023-04-22T04:02:46;21.4;;;14.3;;
69917;SDS011;57203;42.672;23.334;2023-04-22T04:03:46;19.7;;;14.4;;
69917;SDS011;57203;42.672;23.334;2023-04-22T04:04:46;21.5;;;14.1;;
69917;SDS011;57203;42.672;23.334;2023-04-22T04:05:46;20.8;;;13.6;;
69917;SDS011;57203;42.672;23.334;2023-04-22T04:06:46;20.8;;;13.4;;
69917;SDS011;57203;42.672;23.334;2023-04-22T04:07:47;18.6;;;13.0;;
69917;SDS011;57203;42.672;23.334;2023-04-22T04:08:47;19.4;;;13.1;;
69917;SDS011;57203;42.672;23.334;2023-04-22T04:09:47;17.7;;;13.0;;
69917;SDS011;57203;42.672;23.334;2023-04-22T04:10:47;20.0;;;13.8;;
69917;SDS011;57203;42.672;23.334;2023-04-22T04:11:47;20.0;;;14.5;;
69917;SDS011;57203;42.672;23.334;2023-04-22T04:12:47;20.7;;;14.7;;
69917;SDS011;57203;42.672;23.334;2023-04-22T04:13:48;20.7;;;15.8;;
69917;SDS011;57203;42.672;23.334;2023-04-22T04:14:48;22.9;;;15.0;;
69917;SDS011;57203;42.672;23.334;2023-04-22T04:15:48;22.9;;;14.5;;
69917;SDS011;57203;42.672;23.334;2023-04-22T04:16:48;22.2;;;14.9;;
69917;SDS011;57203;42.672;23.334;2023-04-22T04:17:48;20.5;;;15.5;;
69917;SDS011;57203;42.672;23.334;2023-04-22T04:18:49;22.8;;;15.1;;
69917;SDS011;57203;42.672;23.334;2023-04-22T04:19:49;23.7;;;14.6;;
69917;SDS011;57203;42.672;23.334;2023-04-22T04:20:49;20.5;;;15.1;;
69917;SDS011;57203;42.672;23.334;2023-04-22T04:21:49;20.5;;;14.3;;
69917;SDS011;57203;42.672;23.334;2023-04-22T04:22:49;23.2;;;15.0;;
69917;SDS011;57203;42.672;23.334;2023-04-22T04:24:50;19.6;;;14.1;;
69917;SDS011;57203;42.672;23.334;2023-04-22T04:25:50;20.7;;;13.3;;
69917;SDS011;57203;42.672;23.334;2023-04-22T04:26:50;19.6;;;13.4;;
69917;SDS011;57203;42.672;23.334;2023-04-22T04:27:50;19.6;;;12.6;;
69917;SDS011;57203;42.672;23.334;2023-04-22T04:28:50;19.4;;;13.3;;
69917;SDS011;57203;42.672;23.334;2023-04-22T04:29:51;21.5;;;12.7;;
69917;SDS011;57203;42.672;23.334;2023-04-22T04:30:51;17.7;;;13.9;;
69917;SDS011;57203;42.672;23.334;2023-04-22T04:31:51;19.6;;;12.4;;
69917;SDS011;57203;42.672;23.334;2023-04-22T04:32:51;18.6;;;13.8;;
69917;SDS011;57203;42.672;23.334;2023-04-22T04:34:51;19.7;;;13.7;;
69917;SDS011;57203;42.672;23.334;2023-04-22T04:35:52;18.9;;;14.1;;
69917;SDS011;57203;42.672;23.334;2023-04-22T04:36:52;19.3;;;13.8;;
69917;SDS011;57203;42.672;23.334;2023-04-22T04:37:52;19.7;;;13.2;;
69917;SDS011;57203;42.672;23.334;2023-04-22T04:38:52;18.7;;;13.5;;
69917;SDS011;57203;42.672;23.334;2023-04-22T04:39:52;18.7;;;13.3;;
69917;SDS011;57203;42.672;23.334;2023-04-22T04:40:53;18.5;;;13.1;;
69917;SDS011;57203;42.672;23.334;2023-04-22T04:42:53;20.0;;;14.1;;
69917;SDS011;57203;42.672;23.334;2023-04-22T04:43:53;20.0;;;13.5;;
69917;SDS011;57203;42.672;23.334;2023-04-22T04:44:53;20.0;;;13.4;;
69917;SDS011;57203;42.672;23.334;2023-04-22T04:45:53;20.3;;;14.1;;
69917;SDS011;57203;42.672;23.334;2023-04-22T04:46:54;21.5;;;14.3;;
69917;SDS011;57203;42.672;23.334;2023-04-22T04:47:54;20.6;;;14.1;;
69917;SDS011;57203;42.672;23.334;2023-04-22T04:48:54;20.6;;;13.5;;
69917;SDS011;57203;42.672;23.334;2023-04-22T04:49:54;19.4;;;14.0;;
69917;SDS011;57203;42.672;23.334;2023-04-22T04:51:55;20.1;;;13.6;;
69917;SDS011;57203;42.672;23.334;2023-04-22T04:52:55;19.3;;;14.2;;
69917;SDS011;57203;42.672;23.334;2023-04-22T04:53:55;21.5;;;14.0;;
69917;SDS011;57203;42.672;23.334;2023-04-22T04:54:55;21.5;;;14.1;;
69917;SDS011;57203;42.672;23.334;2023-04-22T04:55:55;19.8;;;13.3;;
69917;SDS011;57203;42.672;23.334;2023-04-22T04:56:55;20.5;;;13.5;;
69917;SDS011;57203;42.672;23.334;2023-04-22T04:57:56;20.5;;;12.9;;
69917;SDS011;57203;42.672;23.334;2023-04-22T04:58:56;17.8;;;13.4;;
69917;SDS011;57203;42.672;23.334;2023-04-22T05:00:56;20.6;;;14.1;;
69917;SDS011;57203;42.672;23.334;2023-04-22T05:01:56;20.0;;;13.5;;
69917;SDS011;57203;42.672;23.334;2023-04-22T05:02:57;20.0;;;13.3;;
69917;SDS011;57203;42.672;23.334;2023-04-22T05:03:57;21.1;;;14.0;;
69917;SDS011;57203;42.672;23.334;2023-04-22T05:04:57;21.1;;;13.5;;
69917;SDS011;57203;42.672;23.334;2023-04-22T05:05:57;18.5;;;12.7;;
69917;SDS011;57203;42.672;23.334;2023-04-22T05:06:57;20.9;;;13.2;;
69917;SDS011;57203;42.672;23.334;2023-04-22T05:07:57;20.9;;;13.0;;
69917;SDS011;57203;42.672;23.334;2023-04-22T05:08:58;20.9;;;13.2;;
69917;SDS011;57203;42.672;23.334;2023-04-22T05:09:59;19.8;;;13.1;;
69917;SDS011;57203;42.672;23.334;2023-04-22T05:10:58;21.4;;;12.8;;
69917;SDS011;57203;42.672;23.334;2023-04-22T05:11:58;18.9;;;11.7;;
69917;SDS011;57203;42.672;23.334;2023-04-22T05:12:58;17.0;;;11.4;;
69917;SDS011;57203;42.672;23.334;2023-04-22T05:13:59;18.6;;;11.3;;
69917;SDS011;57203;42.672;23.334;2023-04-22T05:14:59;17.9;;;11.2;;
69917;SDS011;57203;42.672;23.334;2023-04-22T05:15:59;15.6;;;11.7;;
69917;SDS011;57203;42.672;23.334;2023-04-22T05:16:59;17.4;;;11.8;;
69917;SDS011;57203;42.672;23.334;2023-04-22T05:17:59;18.8;;;11.7;;
69917;SDS011;57203;42.672;23.334;2023-04-22T05:19:00;18.8;;;11.6;;
69917;SDS011;57203;42.672;23.334;2023-04-22T05:20:00;16.2;;;12.0;;
69917;SDS011;57203;42.672;23.334;2023-04-22T05:21:00;17.7;;;11.8;;
69917;SDS011;57203;42.672;23.334;2023-04-22T05:22:00;19.2;;;12.0;;
69917;SDS011;57203;42.672;23.334;2023-04-22T05:23:00;19.2;;;12.6;;
69917;SDS011;57203;42.672;23.334;2023-04-22T05:24:00;17.2;;;12.4;;
69917;SDS011;57203;42.672;23.334;2023-04-22T05:25:01;19.5;;;11.8;;
69917;SDS011;57203;42.672;23.334;2023-04-22T05:26:01;16.2;;;11.5;;
69917;SDS011;57203;42.672;23.334;2023-04-22T05:27:01;17.5;;;12.1;;
69917;SDS011;57203;42.672;23.334;2023-04-22T05:28:01;17.5;;;11.8;;
69917;SDS011;57203;42.672;23.334;2023-04-22T05:29:02;17.0;;;11.2;;
69917;SDS011;57203;42.672;23.334;2023-04-22T05:30:02;16.8;;;10.7;;
69917;SDS011;57203;42.672;23.334;2023-04-22T05:31:02;15.9;;;10.8;;
69917;SDS011;57203;42.672;23.334;2023-04-22T05:32:02;16.7;;;11.2;;
69917;SDS011;57203;42.672;23.334;2023-04-22T05:33:02;16.3;;;10.6;;
69917;SDS011;57203;42.672;23.334;2023-04-22T05:35:03;14.5;;;11.2;;
69917;SDS011;57203;42.672;23.334;2023-04-22T05:36:03;16.3;;;10.1;;
69917;SDS011;57203;42.672;23.334;2023-04-22T05:37:03;14.2;;;10.5;;
69917;SDS011;57203;42.672;23.334;2023-04-22T05:39:04;14.9;;;10.9;;
69917;SDS011;57203;42.672;23.334;2023-04-22T05:40:04;14.9;;;10.8;;
69917;SDS011;57203;42.672;23.334;2023-04-22T05:42:04;15.9;;;10.7;;
69917;SDS011;57203;42.672;23.334;2023-04-22T05:43:04;14.8;;;11.3;;
69917;SDS011;57203;42.672;23.334;2023-04-22T05:44:04;16.7;;;11.0;;
69917;SDS011;57203;42.672;23.334;2023-04-22T05:45:05;14.5;;;10.4;;
69917;SDS011;57203;42.672;23.334;2023-04-22T05:46:05;17.0;;;10.7;;
69917;SDS011;57203;42.672;23.334;2023-04-22T05:47:05;15.2;;;10.5;;
69917;SDS011;57203;42.672;23.334;2023-04-22T05:48:05;14.3;;;10.6;;
69917;SDS011;57203;42.672;23.334;2023-04-22T05:49:05;16.1;;;11.2;;
69917;SDS011;57203;42.672;23.334;2023-04-22T05:50:06;16.1;;;11.0;;
69917;SDS011;57203;42.672;23.334;2023-04-22T05:51:05;16.2;;;11.2;;
69917;SDS011;57203;42.672;23.334;2023-04-22T05:52:06;17.7;;;10.5;;
69917;SDS011;57203;42.672;23.334;2023-04-22T05:53:06;14.1;;;11.1;;
69917;SDS011;57203;42.672;23.334;2023-04-22T05:54:06;16.3;;;11.2;;
69917;SDS011;57203;42.672;23.334;2023-04-22T05:55:06;16.3;;;11.4;;
69917;SDS011;57203;42.672;23.334;2023-04-22T05:56:06;16.7;;;11.1;;
69917;SDS011;57203;42.672;23.334;2023-04-22T05:57:07;16.3;;;10.5;;
69917;SDS011;57203;42.672;23.334;2023-04-22T05:58:07;14.0;;;10.7;;
69917;SDS011;57203;42.672;23.334;2023-04-22T05:59:07;17.6;;;11.0;;
69917;SDS011;57203;42.672;23.334;2023-04-22T06:00:08;16.1;;;11.4;;
69917;SDS011;57203;42.672;23.334;2023-04-22T06:01:07;16.1;;;11.0;;
69917;SDS011;57203;42.672;23.334;2023-04-22T06:02:08;16.1;;;11.3;;
69917;SDS011;57203;42.672;23.334;2023-04-22T06:03:08;16.8;;;12.3;;
69917;SDS011;57203;42.672;23.334;2023-04-22T06:04:08;16.8;;;11.6;;
69917;SDS011;57203;42.672;23.334;2023-04-22T06:05:08;16.2;;;11.5;;
69917;SDS011;57203;42.672;23.334;2023-04-22T06:06:08;15.6;;;11.0;;
69917;SDS011;57203;42.672;23.334;2023-04-22T06:07:09;15.6;;;10.3;;
69917;SDS011;57203;42.672;23.334;2023-04-22T06:08:09;14.2;;;10.5;;
69917;SDS011;57203;42.672;23.334;2023-04-22T06:09:09;15.7;;;10.8;;
69917;SDS011;57203;42.672;23.334;2023-04-22T06:10:09;15.7;;;11.0;;
69917;SDS011;57203;42.672;23.334;2023-04-22T06:11:09;15.6;;;10.3;;
69917;SDS011;57203;42.672;23.334;2023-04-22T06:12:09;15.8;;;10.7;;
69917;SDS011;57203;42.672;23.334;2023-04-22T06:13:10;14.5;;;10.1;;
69917;SDS011;57203;42.672;23.334;2023-04-22T06:14:10;14.5;;;10.4;;
69917;SDS011;57203;42.672;23.334;2023-04-22T06:15:10;14.7;;;10.1;;
69917;SDS011;57203;42.672;23.334;2023-04-22T06:16:10;15.2;;;10.4;;
69917;SDS011;57203;42.672;23.334;2023-04-22T06:18:11;14.2;;;10.5;;
69917;SDS011;57203;42.672;23.334;2023-04-22T06:19:11;14.2;;;10.4;;